首页
METAR-TAF:

METAR-TAF

机场 :

Wick, 苏格兰

纬度: 58-27N, 经度: 003-05W, 海拔: 39米

当前天气观测

该预报发布于17分钟前的08:50 UTC
风速2节,风向多变
温度 8°C
湿度 87%
气压 1000 hPa
能见度10公里或以上
1500米以下无云,无积雨云

METAR: EGPC 170850Z VRB02KT CAVOK 08/06 Q1000

时间: 10:07 (09:07 UTC)

预报

该预报发布于1小时和6分钟前的08:01 UTC
预报有效从17日的 09点(UTC)到 17日的 18点(UTC)
风速6节,风向
能见度10公里或以上
少量云层高于3000英尺

TAF: EGPC 170801Z 1709/1718 19006KT 9999 FEW030

超过4000个机场的气象观测和天气预报(METAR&TAF报告)。

可查询的气象台以黄色和红色小点在地图上表示。

将鼠标移到小点上方,可查看气象台名称。

然后点击查看天气观测和预报。

如需切换地图:点击带黑十字的绿色按钮放大地图;点击带横线的绿色按钮缩小地图;或者点击绿色箭头查看邻近地区的地图。


METAR-TAF: